Wetterdaten: Woche 04.07.16 - 10.07.16 (KW27)
Datum Zeit Temp. A. Temp. A. max Feuchte A. Luftdruck Regen Wind Richtung Sonnenschein ET UV Solar Taupunkt Windben
04.07.2016 00:00 12,7 C 12,7 C 85 % 1022,2 hPa 0,0 mm 0,0 km/h (0 Bft) N 0,00 h 0,000 mm 0,0 UV-I 0 W/m 10,3 C 0,1 km/h (0 Bft)
04.07.2016 01:00 12,5 C 12,5 C 88 % 1022,0 hPa 0,0 mm 0,0 km/h (0 Bft) N 0,00 h 0,000 mm 0,0 UV-I 0 W/m 10,5 C 0,0 km/h (0 Bft)
04.07.2016 02:00 12,3 C 12,3 C 85 % 1021,7 hPa 0,0 mm 0,7 km/h (0 Bft) O-SO 0,00 h 0,000 mm 0,0 UV-I 0 W/m 9,8 C 1,4 km/h (1 Bft)
04.07.2016 03:00 11,9 C 11,9 C 84 % 1021,4 hPa 0,0 mm 1,5 km/h (1 Bft) O-SO 0,00 h 0,000 mm 0,0 UV-I 0 W/m 9,3 C 2,5 km/h (1 Bft)
04.07.2016 04:00 11,5 C 11,5 C 87 % 1021,2 hPa 0,0 mm 0,2 km/h (0 Bft) SO 0,00 h 0,025 mm 0,0 UV-I 0 W/m 9,4 C 0,5 km/h (0 Bft)
04.07.2016 05:00 11,4 C 11,4 C 88 % 1021,0 hPa 0,0 mm 0,0 km/h (0 Bft) N 0,00 h 0,000 mm 0,0 UV-I 9 W/m 9,4 C 0,0 km/h (0 Bft)
04.07.2016 06:00 11,7 C 11,7 C 88 % 1020,9 hPa 0,0 mm 0,4 km/h (0 Bft) SO 0,13 h 0,000 mm 0,5 UV-I 66 W/m 9,8 C 0,9 km/h (0 Bft)
04.07.2016 07:00 13,2 C 13,3 C 83 % 1020,9 hPa 0,0 mm 0,7 km/h (0 Bft) O-NO 0,13 h 0,026 mm 0,8 UV-I 153 W/m 10,4 C 1,5 km/h (1 Bft)
04.07.2016 08:00 14,5 C 14,6 C 81 % 1020,9 hPa 0,0 mm 1,3 km/h (1 Bft) W-NW 0,67 h 0,076 mm 2,1 UV-I 353 W/m 11,3 C 1,9 km/h (1 Bft)
04.07.2016 09:00 17,1 C 17,1 C 71 % 1020,5 hPa 0,0 mm 1,9 km/h (1 Bft) W 0,88 h 0,178 mm 3,7 UV-I 544 W/m 11,7 C 3,2 km/h (1 Bft)
04.07.2016 10:00 18,4 C 18,4 C 61 % 1020,3 hPa 0,0 mm 2,5 km/h (1 Bft) O-NO 0,83 h 0,305 mm 5,0 UV-I 666 W/m 10,8 C 4,3 km/h (1 Bft)
04.07.2016 11:00 18,9 C 18,9 C 64 % 1020,2 hPa 0,0 mm 3,1 km/h (1 Bft) O-NO 0,62 h 0,381 mm 5,3 UV-I 694 W/m 11,9 C 5,2 km/h (1 Bft)
04.07.2016 12:00 19,6 C 19,7 C 61 % 1020,0 hPa 0,0 mm 4,4 km/h (1 Bft) N-NO 0,47 h 0,381 mm 5,8 UV-I 691 W/m 12,0 C 7,2 km/h (2 Bft)
04.07.2016 13:00 19,8 C 19,8 C 63 % 1019,6 hPa 0,0 mm 3,8 km/h (1 Bft) NO 0,27 h 0,406 mm 4,7 UV-I 463 W/m 12,4 C 6,0 km/h (2 Bft)
04.07.2016 14:00 20,0 C 20,0 C 63 % 1019,4 hPa 0,0 mm 4,0 km/h (1 Bft) NO 0,22 h 0,330 mm 3,8 UV-I 383 W/m 12,8 C 6,4 km/h (2 Bft)
04.07.2016 15:00 20,1 C 20,2 C 64 % 1019,0 hPa 0,0 mm 3,9 km/h (1 Bft) O-NO 0,08 h 0,254 mm 3,1 UV-I 330 W/m 13,1 C 6,4 km/h (2 Bft)
04.07.2016 16:00 20,1 C 20,2 C 64 % 1018,8 hPa 0,0 mm 3,3 km/h (1 Bft) O-NO 0,00 h 0,229 mm 2,1 UV-I 237 W/m 13,1 C 5,5 km/h (1 Bft)
04.07.2016 17:00 20,1 C 20,2 C 65 % 1018,7 hPa 0,0 mm 2,7 km/h (1 Bft) O-NO 0,00 h 0,152 mm 1,6 UV-I 203 W/m 13,3 C 4,7 km/h (1 Bft)
04.07.2016 18:00 19,9 C 19,9 C 68 % 1018,3 hPa 0,0 mm 1,4 km/h (1 Bft) O 0,18 h 0,127 mm 1,3 UV-I 175 W/m 13,7 C 2,8 km/h (1 Bft)
04.07.2016 19:00 19,8 C 19,8 C 69 % 1018,1 hPa 0,0 mm 1,6 km/h (1 Bft) NO 0,70 h 0,102 mm 0,8 UV-I 143 W/m 13,8 C 3,1 km/h (1 Bft)
04.07.2016 20:00 18,4 C 18,4 C 72 % 1017,8 hPa 0,0 mm 0,9 km/h (0 Bft) O 0,00 h 0,101 mm 0,0 UV-I 42 W/m 13,3 C 1,9 km/h (1 Bft)
04.07.2016 21:00 16,3 C 16,3 C 80 % 1017,9 hPa 0,0 mm 1,2 km/h (1 Bft) O-SO 0,00 h 0,026 mm 0,0 UV-I 7 W/m 12,8 C 2,2 km/h (1 Bft)
04.07.2016 22:00 13,9 C 13,9 C 89 % 1017,9 hPa 0,0 mm 0,2 km/h (0 Bft) SO 0,00 h 0,000 mm 0,0 UV-I 0 W/m 12,1 C 0,6 km/h (0 Bft)
04.07.2016 23:00 13,1 C 13,1 C 92 % 1017,8 hPa 0,0 mm 0,1 km/h (0 Bft) N 0,00 h 0,000 mm 0,0 UV-I 0 W/m 11,8 C 0,5 km/h (0 Bft)
05.07.2016 00:00 12,8 C 12,9 C 92 % 1017,5 hPa 0,0 mm 0,2 km/h (0 Bft) N 0,00 h 0,000 mm 0,0 UV-I 0 W/m 11,6 C 0,9 km/h (0 Bft)
05.07.2016 01:00 12,0 C 12,0 C 94 % 1017,2 hPa 0,0 mm 0,1 km/h (0 Bft) N 0,00 h 0,000 mm 0,0 UV-I 0 W/m 11,1 C 0,5 km/h (0 Bft)
05.07.2016 02:00 12,1 C 12,1 C 94 % 1016,9 hPa 0,0 mm 0,4 km/h (0 Bft) W 0,00 h 0,000 mm 0,0 UV-I 0 W/m 11,1 C 1,0 km/h (0 Bft)
05.07.2016 03:00 11,9 C 11,9 C 95 % 1016,3 hPa 0,0 mm 0,3 km/h (0 Bft) S-SW 0,00 h 0,000 mm 0,0 UV-I 0 W/m 11,0 C 1,1 km/h (0 Bft)
05.07.2016 04:00 11,4 C 11,4 C 95 % 1015,9 hPa 0,0 mm 0,1 km/h (0 Bft) N 0,00 h 0,000 mm 0,0 UV-I 0 W/m 10,6 C 0,5 km/h (0 Bft)
05.07.2016 05:00 11,4 C 11,4 C 95 % 1016,1 hPa 0,0 mm 0,0 km/h (0 Bft) N 0,07 h 0,000 mm 0,0 UV-I 12 W/m 10,6 C 0,1 km/h (0 Bft)
05.07.2016 06:00 12,6 C 12,6 C 93 % 1015,9 hPa 0,0 mm 0,0 km/h (0 Bft) NW 0,42 h 0,000 mm 0,5 UV-I 74 W/m 11,4 C 0,2 km/h (0 Bft)
05.07.2016 07:00 15,1 C 15,1 C 89 % 1016,0 hPa 0,0 mm 0,4 km/h (0 Bft) SW 0,45 h 0,051 mm 0,9 UV-I 175 W/m 13,2 C 1,5 km/h (1 Bft)
05.07.2016 08:00 18,2 C 18,2 C 80 % 1015,8 hPa 0,0 mm 0,7 km/h (0 Bft) SW 0,88 h 0,101 mm 2,1 UV-I 368 W/m 14,7 C 1,5 km/h (1 Bft)
05.07.2016 09:00 20,3 C 20,4 C 69 % 1015,7 hPa 0,0 mm 3,5 km/h (1 Bft) W-NW 0,70 h 0,204 mm 3,0 UV-I 435 W/m 14,3 C 5,6 km/h (1 Bft)
05.07.2016 10:00 21,0 C 21,0 C 69 % 1015,8 hPa 0,0 mm 5,6 km/h (1 Bft) W 0,68 h 0,254 mm 4,5 UV-I 561 W/m 15,0 C 9,3 km/h (2 Bft)
05.07.2016 11:00 21,9 C 21,9 C 67 % 1015,9 hPa 0,0 mm 7,8 km/h (2 Bft) W-NW 0,80 h 0,355 mm 5,2 UV-I 641 W/m 15,4 C 12,6 km/h (3 Bft)
05.07.2016 12:00 22,1 C 22,1 C 67 % 1015,8 hPa 0,0 mm 8,4 km/h (2 Bft) W-NW 0,45 h 0,432 mm 5,0 UV-I 547 W/m 15,6 C 13,1 km/h (3 Bft)
05.07.2016 13:00 23,2 C 23,2 C 63 % 1015,4 hPa 0,0 mm 9,6 km/h (2 Bft) W-SW 0,85 h 0,381 mm 6,7 UV-I 778 W/m 15,6 C 15,1 km/h (3 Bft)
05.07.2016 14:00 23,8 C 23,9 C 56 % 1014,8 hPa 0,0 mm 12,3 km/h (3 Bft) W 0,97 h 0,508 mm 6,6 UV-I 794 W/m 14,6 C 19,8 km/h (3 Bft)
05.07.2016 15:00 23,6 C 23,6 C 54 % 1014,5 hPa 0,0 mm 13,6 km/h (3 Bft) W 0,93 h 0,559 mm 5,3 UV-I 643 W/m 13,8 C 20,7 km/h (4 Bft)
05.07.2016 16:00 23,3 C 23,3 C 55 % 1014,2 hPa 0,0 mm 13,7 km/h (3 Bft) W 0,28 h 0,482 mm 3,0 UV-I 296 W/m 13,7 C 20,5 km/h (4 Bft)
05.07.2016 17:00 22,9 C 23,0 C 53 % 1013,9 hPa 0,0 mm 11,7 km/h (2 Bft) W-NW 0,00 h 0,280 mm 1,9 UV-I 150 W/m 12,9 C 18,6 km/h (3 Bft)
05.07.2016 18:00 22,3 C 22,3 C 53 % 1014,0 hPa 0,0 mm 9,7 km/h (2 Bft) W-SW 0,08 h 0,178 mm 1,4 UV-I 138 W/m 12,3 C 15,7 km/h (3 Bft)
05.07.2016 19:00 21,8 C 21,8 C 50 % 1014,2 hPa 0,0 mm 9,5 km/h (2 Bft) W-SW 0,58 h 0,152 mm 0,8 UV-I 157 W/m 10,9 C 15,5 km/h (3 Bft)
05.07.2016 20:00 20,6 C 20,6 C 53 % 1014,7 hPa 0,0 mm 7,4 km/h (2 Bft) W 0,13 h 0,178 mm 0,0 UV-I 38 W/m 10,6 C 12,0 km/h (2 Bft)
05.07.2016 21:00 18,3 C 18,4 C 72 % 1016,0 hPa 0,0 mm 4,4 km/h (1 Bft) W 0,05 h 0,076 mm 0,0 UV-I 15 W/m 13,3 C 7,6 km/h (2 Bft)
05.07.2016 22:00 16,8 C 16,8 C 77 % 1016,6 hPa 0,0 mm 2,2 km/h (1 Bft) W-SW 0,00 h 0,025 mm 0,0 UV-I 0 W/m 12,7 C 4,0 km/h (1 Bft)
05.07.2016 23:00 16,8 C 16,8 C 74 % 1017,2 hPa 0,0 mm 2,9 km/h (1 Bft) W-SW 0,00 h 0,026 mm 0,0 UV-I 0 W/m 12,0 C 4,7 km/h (1 Bft)
06.07.2016 00:00 16,3 C 16,3 C 76 % 1017,1 hPa 0,0 mm 1,7 km/h (1 Bft) S 0,00 h 0,000 mm 0,0 UV-I 0 W/m 12,0 C 3,2 km/h (1 Bft)
06.07.2016 01:00 16,3 C 16,3 C 74 % 1017,0 hPa 0,0 mm 2,1 km/h (1 Bft) S-SW 0,00 h 0,025 mm 0,0 UV-I 0 W/m 11,7 C 3,7 km/h (1 Bft)
06.07.2016 02:00 16,1 C 16,1 C 74 % 1016,9 hPa 0,0 mm 1,8 km/h (1 Bft) S 0,00 h 0,026 mm 0,0 UV-I 0 W/m 11,4 C 3,2 km/h (1 Bft)
06.07.2016 03:00 15,9 C 15,9 C 75 % 1016,6 hPa 0,0 mm 1,4 km/h (1 Bft) SW 0,00 h 0,025 mm 0,0 UV-I 0 W/m 11,4 C 2,7 km/h (1 Bft)
06.07.2016 04:00 15,5 C 15,6 C 75 % 1016,4 hPa 0,0 mm 1,3 km/h (1 Bft) S 0,00 h 0,026 mm 0,0 UV-I 0 W/m 11,1 C 2,6 km/h (1 Bft)
06.07.2016 05:00 14,8 C 14,9 C 78 % 1016,6 hPa 0,0 mm 1,7 km/h (1 Bft) W-NW 0,05 h 0,025 mm 0,0 UV-I 12 W/m 11,0 C 3,4 km/h (1 Bft)
06.07.2016 06:00 14,8 C 14,8 C 79 % 1016,9 hPa 0,0 mm 3,0 km/h (1 Bft) W-SW 0,00 h 0,000 mm 0,0 UV-I 31 W/m 11,2 C 5,2 km/h (1 Bft)
06.07.2016 07:00 15,2 C 15,2 C 80 % 1017,0 hPa 0,0 mm 3,7 km/h (1 Bft) W 0,00 h 0,025 mm 0,6 UV-I 79 W/m 11,7 C 6,1 km/h (2 Bft)
06.07.2016 08:00 14,9 C 15,0 C 81 % 1017,5 hPa 0,0 mm 4,6 km/h (1 Bft) W 0,00 h 0,051 mm 0,6 UV-I 60 W/m 11,7 C 7,3 km/h (2 Bft)
06.07.2016 09:00 15,0 C 15,0 C 81 % 1017,7 hPa 0,0 mm 5,5 km/h (1 Bft) W-NW 0,00 h 0,051 mm 1,0 UV-I 114 W/m 11,8 C 8,7 km/h (2 Bft)
06.07.2016 10:00 15,5 C 15,6 C 76 % 1017,9 hPa 0,0 mm 7,3 km/h (2 Bft) W-NW 0,00 h 0,076 mm 1,8 UV-I 224 W/m 11,4 C 11,4 km/h (2 Bft)
06.07.2016 11:00 16,2 C 16,3 C 75 % 1018,2 hPa 0,0 mm 5,6 km/h (1 Bft) W 0,00 h 0,153 mm 2,1 UV-I 245 W/m 11,7 C 9,0 km/h (2 Bft)
06.07.2016 12:00 17,0 C 17,0 C 72 % 1018,4 hPa 0,0 mm 5,0 km/h (1 Bft) W-NW 0,00 h 0,152 mm 2,4 UV-I 264 W/m 11,9 C 7,9 km/h (2 Bft)
06.07.2016 13:00 17,7 C 17,7 C 70 % 1018,3 hPa 0,0 mm 5,8 km/h (2 Bft) W-NW 0,13 h 0,178 mm 3,2 UV-I 356 W/m 12,2 C 9,3 km/h (2 Bft)
06.07.2016 14:00 18,5 C 18,6 C 68 % 1018,1 hPa 0,0 mm 6,0 km/h (2 Bft) W-NW 0,33 h 0,228 mm 3,9 UV-I 491 W/m 12,4 C 9,4 km/h (2 Bft)
06.07.2016 15:00 19,1 C 19,1 C 65 % 1018,0 hPa 0,0 mm 6,8 km/h (2 Bft) W-NW 0,25 h 0,280 mm 3,7 UV-I 405 W/m 12,4 C 11,2 km/h (2 Bft)
06.07.2016 16:00 19,1 C 19,1 C 65 % 1017,8 hPa 0,0 mm 5,9 km/h (2 Bft) W-NW 0,03 h 0,279 mm 2,5 UV-I 265 W/m 12,4 C 9,6 km/h (2 Bft)
06.07.2016 17:00 18,4 C 18,5 C 66 % 1017,8 hPa 0,0 mm 5,0 km/h (1 Bft) N 0,00 h 0,178 mm 1,3 UV-I 169 W/m 11,9 C 8,1 km/h (2 Bft)
06.07.2016 18:00 18,5 C 18,6 C 65 % 1017,8 hPa 0,0 mm 3,1 km/h (1 Bft) N 0,00 h 0,127 mm 1,1 UV-I 158 W/m 11,8 C 5,3 km/h (1 Bft)
06.07.2016 19:00 17,9 C 18,0 C 66 % 1018,3 hPa 0,0 mm 3,4 km/h (1 Bft) N 0,00 h 0,102 mm 0,5 UV-I 60 W/m 11,5 C 5,4 km/h (1 Bft)
06.07.2016 20:00 17,0 C 17,0 C 67 % 1018,9 hPa 0,0 mm 1,8 km/h (1 Bft) N 0,00 h 0,050 mm 0,0 UV-I 26 W/m 10,7 C 3,1 km/h (1 Bft)
06.07.2016 21:00 15,4 C 15,5 C 73 % 1019,5 hPa 0,0 mm 1,3 km/h (1 Bft) O-SO 0,03 h 0,026 mm 0,0 UV-I 6 W/m 10,6 C 2,3 km/h (1 Bft)
06.07.2016 22:00 13,7 C 13,8 C 80 % 1020,0 hPa 0,0 mm 0,9 km/h (0 Bft) O-SO 0,00 h 0,000 mm 0,0 UV-I 0 W/m 10,3 C 1,8 km/h (1 Bft)
06.07.2016 23:00 12,1 C 12,1 C 84 % 1020,3 hPa 0,0 mm 1,0 km/h (0 Bft) S-SO 0,00 h 0,025 mm 0,0 UV-I 0 W/m 9,5 C 2,2 km/h (1 Bft)
07.07.2016 00:00 11,4 C 11,4 C 89 % 1020,3 hPa 0,0 mm 0,5 km/h (0 Bft) S 0,00 h 0,000 mm 0,0 UV-I 0 W/m 9,6 C 1,1 km/h (1 Bft)
07.07.2016 01:00 10,5 C 10,5 C 91 % 1020,3 hPa 0,0 mm 0,0 km/h (0 Bft) N 0,00 h 0,000 mm 0,0 UV-I 0 W/m 9,0 C 0,1 km/h (0 Bft)
07.07.2016 02:00 10,2 C 10,2 C 91 % 1020,2 hPa 0,0 mm 0,0 km/h (0 Bft) N 0,00 h 0,000 mm 0,0 UV-I 0 W/m 8,8 C 0,0 km/h (0 Bft)
07.07.2016 03:00 9,3 C 9,3 C 93 % 1020,0 hPa 0,0 mm 0,0 km/h (0 Bft) N 0,00 h 0,000 mm 0,0 UV-I 0 W/m 8,3 C 0,0 km/h (0 Bft)
07.07.2016 04:00 9,5 C 9,5 C 94 % 1020,2 hPa 0,0 mm 0,0 km/h (0 Bft) N 0,00 h 0,000 mm 0,0 UV-I 0 W/m 8,6 C 0,0 km/h (0 Bft)
07.07.2016 05:00 9,7 C 9,7 C 93 % 1020,0 hPa 0,0 mm 0,0 km/h (0 Bft) N 0,00 h 0,000 mm 0,0 UV-I 11 W/m 8,7 C 0,0 km/h (0 Bft)
07.07.2016 06:00 10,2 C 10,2 C 93 % 1020,4 hPa 0,0 mm 0,0 km/h (0 Bft) N 0,07 h 0,000 mm 0,0 UV-I 50 W/m 9,1 C 0,0 km/h (0 Bft)
07.07.2016 07:00 12,1 C 12,1 C 91 % 1020,9 hPa 0,0 mm 0,0 km/h (0 Bft) N 0,25 h 0,025 mm 0,9 UV-I 136 W/m 10,6 C 0,0 km/h (0 Bft)
07.07.2016 08:00 14,8 C 14,8 C 80 % 1020,9 hPa 0,0 mm 1,0 km/h (0 Bft) N-NO 1,00 h 0,077 mm 2,2 UV-I 415 W/m 11,4 C 1,7 km/h (1 Bft)
07.07.2016 09:00 16,5 C 16,5 C 70 % 1020,8 hPa 0,0 mm 2,3 km/h (1 Bft) O-NO 0,48 h 0,228 mm 2,8 UV-I 370 W/m 11,0 C 3,8 km/h (1 Bft)
07.07.2016 10:00 18,0 C 18,0 C 65 % 1020,6 hPa 0,0 mm 3,5 km/h (1 Bft) O-NO 1,00 h 0,229 mm 5,1 UV-I 716 W/m 11,4 C 5,8 km/h (2 Bft)
07.07.2016 11:00 19,3 C 19,3 C 63 % 1020,5 hPa 0,0 mm 4,5 km/h (1 Bft) N-NW 0,60 h 0,406 mm 5,3 UV-I 627 W/m 12,0 C 7,0 km/h (2 Bft)
07.07.2016 12:00 20,4 C 20,4 C 61 % 1020,2 hPa 0,0 mm 4,6 km/h (1 Bft) N 0,92 h 0,381 mm 7,3 UV-I 940 W/m 12,5 C 7,6 km/h (2 Bft)
07.07.2016 13:00 21,1 C 21,1 C 58 % 1019,9 hPa 0,0 mm 5,9 km/h (2 Bft) O-NO 1,00 h 0,559 mm 7,6 UV-I 981 W/m 12,6 C 9,6 km/h (2 Bft)
07.07.2016 14:00 21,8 C 21,9 C 57 % 1019,4 hPa 0,0 mm 4,7 km/h (1 Bft) NW 1,00 h 0,610 mm 7,0 UV-I 894 W/m 12,9 C 7,7 km/h (2 Bft)
07.07.2016 15:00 22,1 C 22,2 C 55 % 1019,0 hPa 0,0 mm 5,2 km/h (1 Bft) N 1,00 h 0,558 mm 5,2 UV-I 736 W/m 12,5 C 8,0 km/h (2 Bft)
07.07.2016 16:00 22,0 C 22,1 C 54 % 1019,0 hPa 0,0 mm 4,8 km/h (1 Bft) N-NW 0,30 h 0,458 mm 2,9 UV-I 308 W/m 12,3 C 7,4 km/h (2 Bft)
07.07.2016 17:00 21,8 C 21,8 C 55 % 1019,0 hPa 0,0 mm 3,9 km/h (1 Bft) O-NO 0,00 h 0,203 mm 1,8 UV-I 118 W/m 12,3 C 6,2 km/h (2 Bft)
07.07.2016 18:00 21,6 C 21,6 C 54 % 1018,6 hPa 0,0 mm 4,6 km/h (1 Bft) O-NO 0,17 h 0,101 mm 1,3 UV-I 106 W/m 11,9 C 7,7 km/h (2 Bft)
07.07.2016 19:00 21,1 C 21,2 C 52 % 1018,5 hPa 0,0 mm 4,1 km/h (1 Bft) NO 0,67 h 0,102 mm 0,8 UV-I 140 W/m 11,0 C 6,7 km/h (2 Bft)
07.07.2016 20:00 19,4 C 19,4 C 57 % 1018,6 hPa 0,0 mm 1,4 km/h (1 Bft) O 0,23 h 0,127 mm 0,0 UV-I 43 W/m 10,7 C 2,7 km/h (1 Bft)
07.07.2016 21:00 15,7 C 15,8 C 71 % 1019,0 hPa 0,0 mm 0,9 km/h (0 Bft) O-SO 0,07 h 0,051 mm 0,0 UV-I 8 W/m 10,5 C 2,0 km/h (1 Bft)
07.07.2016 22:00 13,9 C 14,0 C 77 % 1019,1 hPa 0,0 mm 1,5 km/h (1 Bft) S-SO 0,00 h 0,000 mm 0,0 UV-I 0 W/m 9,9 C 2,9 km/h (1 Bft)
07.07.2016 23:00 12,7 C 12,7 C 84 % 1019,0 hPa 0,0 mm 0,2 km/h (0 Bft) S-SO 0,00 h 0,025 mm 0,0 UV-I 0 W/m 10,0 C 0,7 km/h (0 Bft)
08.07.2016 00:00 11,9 C 12,0 C 87 % 1018,9 hPa 0,0 mm 0,0 km/h (0 Bft) N 0,00 h 0,000 mm 0,0 UV-I 0 W/m 9,9 C 0,0 km/h (0 Bft)
08.07.2016 01:00 10,8 C 10,8 C 92 % 1018,7 hPa 0,0 mm 0,0 km/h (0 Bft) N 0,00 h 0,000 mm 0,0 UV-I 0 W/m 9,6 C 0,0 km/h (0 Bft)
08.07.2016 02:00 10,3 C 10,3 C 93 % 1018,4 hPa 0,0 mm 0,1 km/h (0 Bft) S-SO 0,00 h 0,000 mm 0,0 UV-I 0 W/m 9,2 C 0,4 km/h (0 Bft)
08.07.2016 03:00 9,9 C 10,0 C 94 % 1018,1 hPa 0,0 mm 0,1 km/h (0 Bft) S-SO 0,00 h 0,000 mm 0,0 UV-I 0 W/m 9,0 C 0,5 km/h (0 Bft)
08.07.2016 04:00 9,9 C 9,9 C 94 % 1017,7 hPa 0,0 mm 0,2 km/h (0 Bft) S-SO 0,00 h 0,000 mm 0,0 UV-I 0 W/m 9,1 C 0,5 km/h (0 Bft)
08.07.2016 05:00 9,8 C 9,8 C 95 % 1017,2 hPa 0,0 mm 0,0 km/h (0 Bft) N 0,05 h 0,000 mm 0,0 UV-I 12 W/m 9,0 C 0,0 km/h (0 Bft)
08.07.2016 06:00 10,4 C 10,4 C 94 % 1017,4 hPa 0,0 mm 0,0 km/h (0 Bft) N 0,38 h 0,000 mm 0,5 UV-I 83 W/m 9,5 C 0,0 km/h (0 Bft)
08.07.2016 07:00 14,0 C 14,0 C 88 % 1017,6 hPa 0,0 mm 0,0 km/h (0 Bft) N 0,48 h 0,051 mm 0,8 UV-I 181 W/m 12,1 C 0,0 km/h (0 Bft)
08.07.2016 08:00 16,6 C 16,6 C 82 % 1017,7 hPa 0,0 mm 0,0 km/h (0 Bft) N 0,10 h 0,101 mm 1,6 UV-I 225 W/m 13,6 C 0,1 km/h (0 Bft)
08.07.2016 09:00 19,3 C 19,3 C 73 % 1017,4 hPa 0,0 mm 0,7 km/h (0 Bft) W-NW 0,70 h 0,127 mm 2,7 UV-I 398 W/m 14,4 C 1,6 km/h (1 Bft)
08.07.2016 10:00 21,2 C 21,2 C 64 % 1017,2 hPa 0,0 mm 3,2 km/h (1 Bft) O-NO 0,80 h 0,229 mm 4,3 UV-I 599 W/m 14,0 C 5,3 km/h (1 Bft)
08.07.2016 11:00 23,0 C 23,0 C 53 % 1017,2 hPa 0,0 mm 6,3 km/h (2 Bft) W-NW 0,68 h 0,356 mm 5,4 UV-I 620 W/m 12,9 C 9,8 km/h (2 Bft)
08.07.2016 12:00 23,4 C 23,4 C 56 % 1017,0 hPa 0,0 mm 6,5 km/h (2 Bft) W 0,32 h 0,457 mm 4,9 UV-I 511 W/m 14,0 C 10,9 km/h (2 Bft)
08.07.2016 13:00 25,1 C 25,2 C 51 % 1016,4 hPa 0,0 mm 9,5 km/h (2 Bft) W-NW 0,92 h 0,355 mm 7,1 UV-I 877 W/m 14,3 C 15,3 km/h (3 Bft)
08.07.2016 14:00 26,0 C 26,0 C 44 % 1015,9 hPa 0,0 mm 13,0 km/h (3 Bft) W-NW 1,00 h 0,610 mm 6,6 UV-I 824 W/m 12,7 C 20,3 km/h (4 Bft)
08.07.2016 15:00 26,1 C 26,1 C 43 % 1015,9 hPa 0,0 mm 15,0 km/h (3 Bft) W-NW 1,00 h 0,635 mm 5,5 UV-I 722 W/m 12,4 C 23,9 km/h (4 Bft)
08.07.2016 16:00 25,1 C 25,1 C 45 % 1015,9 hPa 0,0 mm 15,6 km/h (3 Bft) W 0,15 h 0,584 mm 3,0 UV-I 324 W/m 12,4 C 23,3 km/h (4 Bft)
08.07.2016 17:00 23,9 C 24,0 C 48 % 1016,3 hPa 0,0 mm 11,0 km/h (2 Bft) W-SW 0,00 h 0,356 mm 1,7 UV-I 193 W/m 12,2 C 17,8 km/h (3 Bft)
08.07.2016 18:00 23,3 C 23,3 C 49 % 1016,3 hPa 0,0 mm 6,5 km/h (2 Bft) W-SW 0,05 h 0,203 mm 1,2 UV-I 132 W/m 12,1 C 10,6 km/h (2 Bft)
08.07.2016 19:00 23,8 C 23,9 C 45 % 1016,3 hPa 0,0 mm 10,4 km/h (2 Bft) W 0,33 h 0,152 mm 0,7 UV-I 127 W/m 11,1 C 16,7 km/h (3 Bft)
08.07.2016 20:00 22,7 C 22,7 C 49 % 1016,6 hPa 0,0 mm 8,6 km/h (2 Bft) W 0,00 h 0,178 mm 0,0 UV-I 29 W/m 11,3 C 13,6 km/h (3 Bft)
08.07.2016 21:00 21,4 C 21,4 C 55 % 1017,1 hPa 0,0 mm 4,0 km/h (1 Bft) S 0,00 h 0,102 mm 0,0 UV-I 5 W/m 12,0 C 7,0 km/h (2 Bft)
08.07.2016 22:00 18,3 C 18,3 C 71 % 1017,8 hPa 0,2 mm 7,2 km/h (2 Bft) S-SW 0,00 h 0,025 mm 0,0 UV-I 0 W/m 12,8 C 12,4 km/h (3 Bft)
08.07.2016 23:00 17,5 C 17,6 C 78 % 1018,1 hPa 0,0 mm 2,2 km/h (1 Bft) S 0,00 h 0,051 mm 0,0 UV-I 0 W/m 13,7 C 4,0 km/h (1 Bft)
09.07.2016 00:00 18,6 C 18,6 C 69 % 1018,4 hPa 0,0 mm 2,1 km/h (1 Bft) SW 0,00 h 0,000 mm 0,0 UV-I 0 W/m 12,8 C 4,4 km/h (1 Bft)
09.07.2016 01:00 19,3 C 19,3 C 62 % 1018,6 hPa 0,0 mm 2,2 km/h (1 Bft) S-SW 0,00 h 0,025 mm 0,0 UV-I 0 W/m 11,9 C 4,0 km/h (1 Bft)
09.07.2016 02:00 19,0 C 19,0 C 63 % 1018,3 hPa 0,0 mm 2,5 km/h (1 Bft) S 0,00 h 0,051 mm 0,0 UV-I 0 W/m 11,8 C 4,4 km/h (1 Bft)
09.07.2016 03:00 18,5 C 18,6 C 65 % 1018,0 hPa 0,0 mm 1,6 km/h (1 Bft) S-SW 0,00 h 0,051 mm 0,0 UV-I 0 W/m 11,9 C 3,0 km/h (1 Bft)
09.07.2016 04:00 16,6 C 16,7 C 78 % 1017,6 hPa 0,0 mm 0,9 km/h (0 Bft) W-SW 0,00 h 0,025 mm 0,0 UV-I 0 W/m 12,7 C 2,2 km/h (1 Bft)
09.07.2016 05:00 18,8 C 18,8 C 64 % 1017,4 hPa 0,0 mm 2,6 km/h (1 Bft) W-SW 0,00 h 0,026 mm 0,0 UV-I 7 W/m 11,8 C 4,7 km/h (1 Bft)
09.07.2016 06:00 18,5 C 18,5 C 70 % 1017,7 hPa 0,0 mm 2,6 km/h (1 Bft) W-SW 0,00 h 0,025 mm 0,0 UV-I 32 W/m 12,8 C 4,3 km/h (1 Bft)
09.07.2016 07:00 18,0 C 18,0 C 74 % 1018,3 hPa 0,0 mm 6,1 km/h (2 Bft) W-SW 0,00 h 0,026 mm 0,0 UV-I 18 W/m 13,2 C 10,0 km/h (2 Bft)
09.07.2016 08:00 16,9 C 17,0 C 82 % 1018,6 hPa 0,2 mm 3,5 km/h (1 Bft) W-SW 0,00 h 0,025 mm 0,9 UV-I 76 W/m 13,8 C 6,5 km/h (2 Bft)
09.07.2016 09:00 19,8 C 19,8 C 75 % 1018,4 hPa 0,0 mm 8,2 km/h (2 Bft) W 0,68 h 0,051 mm 2,9 UV-I 421 W/m 15,2 C 13,7 km/h (3 Bft)
09.07.2016 10:00 20,9 C 20,9 C 69 % 1018,3 hPa 0,0 mm 10,6 km/h (2 Bft) W 0,58 h 0,279 mm 3,6 UV-I 424 W/m 14,9 C 17,0 km/h (3 Bft)
09.07.2016 11:00 21,6 C 21,6 C 67 % 1018,4 hPa 0,0 mm 11,2 km/h (2 Bft) W 0,75 h 0,305 mm 4,6 UV-I 529 W/m 15,1 C 16,9 km/h (3 Bft)
09.07.2016 12:00 22,4 C 22,4 C 65 % 1018,3 hPa 0,0 mm 11,1 km/h (2 Bft) W 0,85 h 0,381 mm 5,7 UV-I 681 W/m 15,4 C 17,9 km/h (3 Bft)
09.07.2016 13:00 22,9 C 23,0 C 60 % 1018,1 hPa 0,0 mm 12,2 km/h (2 Bft) W 0,53 h 0,457 mm 6,1 UV-I 686 W/m 14,8 C 18,5 km/h (3 Bft)
09.07.2016 14:00 24,0 C 24,0 C 56 % 1017,7 hPa 0,0 mm 12,5 km/h (3 Bft) W 0,95 h 0,508 mm 7,1 UV-I 904 W/m 14,6 C 19,1 km/h (3 Bft)
09.07.2016 15:00 24,2 C 24,2 C 54 % 1017,4 hPa 0,0 mm 12,3 km/h (3 Bft) W-NW 0,85 h 0,584 mm 5,4 UV-I 717 W/m 14,2 C 18,6 km/h (3 Bft)
09.07.2016 16:00 24,4 C 24,4 C 53 % 1017,3 hPa 0,0 mm 11,4 km/h (2 Bft) W 0,28 h 0,508 mm 3,1 UV-I 286 W/m 14,2 C 17,8 km/h (3 Bft)
09.07.2016 17:00 24,3 C 24,3 C 52 % 1016,9 hPa 0,0 mm 11,3 km/h (2 Bft) W 0,00 h 0,254 mm 1,8 UV-I 89 W/m 13,8 C 17,8 km/h (3 Bft)
09.07.2016 18:00 24,2 C 24,2 C 51 % 1016,6 hPa 0,0 mm 9,4 km/h (2 Bft) W-NW 0,03 h 0,153 mm 1,3 UV-I 90 W/m 13,3 C 14,8 km/h (3 Bft)
09.07.2016 19:00 23,7 C 23,7 C 48 % 1016,7 hPa 0,0 mm 7,4 km/h (2 Bft) W 0,73 h 0,127 mm 0,8 UV-I 152 W/m 12,2 C 11,7 km/h (2 Bft)
09.07.2016 20:00 22,8 C 22,9 C 52 % 1016,9 hPa 0,0 mm 3,6 km/h (1 Bft) S 0,40 h 0,152 mm 0,0 UV-I 59 W/m 12,3 C 5,8 km/h (2 Bft)
09.07.2016 21:00 19,3 C 19,4 C 63 % 1017,3 hPa 0,0 mm 1,4 km/h (1 Bft) S 0,00 h 0,076 mm 0,0 UV-I 6 W/m 12,1 C 2,7 km/h (1 Bft)
09.07.2016 22:00 17,0 C 17,0 C 75 % 1017,7 hPa 0,0 mm 2,0 km/h (1 Bft) S 0,00 h 0,026 mm 0,0 UV-I 0 W/m 12,5 C 3,0 km/h (1 Bft)
09.07.2016 23:00 16,1 C 16,1 C 80 % 1017,7 hPa 0,0 mm 0,4 km/h (0 Bft) S 0,00 h 0,025 mm 0,0 UV-I 0 W/m 12,7 C 1,1 km/h (1 Bft)
10.07.2016 00:00 15,0 C 15,1 C 85 % 1017,6 hPa 0,0 mm 0,3 km/h (0 Bft) S 0,00 h 0,000 mm 0,0 UV-I 0 W/m 12,5 C 1,0 km/h (0 Bft)
10.07.2016 01:00 14,4 C 14,4 C 86 % 1017,5 hPa 0,0 mm 0,0 km/h (0 Bft) N 0,00 h 0,025 mm 0,0 UV-I 0 W/m 12,0 C 0,1 km/h (0 Bft)
10.07.2016 02:00 13,7 C 13,7 C 89 % 1017,0 hPa 0,0 mm 0,0 km/h (0 Bft) N 0,00 h 0,000 mm 0,0 UV-I 0 W/m 11,8 C 0,0 km/h (0 Bft)
10.07.2016 03:00 12,7 C 12,7 C 92 % 1016,6 hPa 0,0 mm 0,0 km/h (0 Bft) N 0,00 h 0,000 mm 0,0 UV-I 0 W/m 11,5 C 0,0 km/h (0 Bft)
10.07.2016 04:00 12,3 C 12,3 C 93 % 1016,0 hPa 0,0 mm 0,1 km/h (0 Bft) S-SO 0,00 h 0,000 mm 0,0 UV-I 0 W/m 11,2 C 0,6 km/h (0 Bft)
10.07.2016 05:00 12,2 C 12,2 C 93 % 1015,7 hPa 0,0 mm 0,5 km/h (0 Bft) S-SO 0,02 h 0,000 mm 0,0 UV-I 10 W/m 11,2 C 1,4 km/h (1 Bft)
10.07.2016 06:00 13,2 C 13,2 C 91 % 1015,5 hPa 0,0 mm 0,5 km/h (0 Bft) S-SO 0,65 h 0,000 mm 0,5 UV-I 87 W/m 11,9 C 1,4 km/h (1 Bft)
10.07.2016 07:00 16,6 C 16,6 C 85 % 1015,5 hPa 0,0 mm 0,6 km/h (0 Bft) O 0,95 h 0,051 mm 1,1 UV-I 241 W/m 14,0 C 1,5 km/h (1 Bft)
10.07.2016 08:00 19,6 C 19,6 C 77 % 1015,4 hPa 0,0 mm 1,5 km/h (1 Bft) NO 1,00 h 0,127 mm 2,3 UV-I 416 W/m 15,5 C 2,9 km/h (1 Bft)
10.07.2016 09:00 21,7 C 21,7 C 69 % 1015,1 hPa 0,0 mm 4,5 km/h (1 Bft) NO 1,00 h 0,254 mm 3,8 UV-I 582 W/m 15,8 C 7,0 km/h (2 Bft)
10.07.2016 10:00 23,1 C 23,1 C 65 % 1014,8 hPa 0,0 mm 5,6 km/h (1 Bft) NO 1,00 h 0,356 mm 5,2 UV-I 721 W/m 16,1 C 8,7 km/h (2 Bft)
10.07.2016 11:00 24,2 C 24,2 C 60 % 1014,4 hPa 0,0 mm 6,0 km/h (2 Bft) NO 1,00 h 0,457 mm 6,5 UV-I 821 W/m 16,0 C 9,9 km/h (2 Bft)
10.07.2016 12:00 25,6 C 25,6 C 56 % 1013,8 hPa 0,0 mm 6,1 km/h (2 Bft) NO 1,00 h 0,533 mm 7,4 UV-I 880 W/m 16,1 C 10,3 km/h (2 Bft)
10.07.2016 13:00 27,2 C 27,2 C 53 % 1013,1 hPa 0,0 mm 5,8 km/h (2 Bft) N-NO 1,00 h 0,585 mm 7,7 UV-I 891 W/m 16,8 C 9,3 km/h (2 Bft)
10.07.2016 14:00 28,1 C 28,1 C 50 % 1012,6 hPa 0,0 mm 4,4 km/h (1 Bft) O-NO 1,00 h 0,609 mm 7,2 UV-I 854 W/m 16,5 C 7,2 km/h (2 Bft)
10.07.2016 15:00 28,7 C 28,7 C 48 % 1012,1 hPa 0,0 mm 3,7 km/h (1 Bft) O-NO 1,00 h 0,584 mm 6,1 UV-I 770 W/m 16,5 C 6,0 km/h (2 Bft)
10.07.2016 16:00 28,7 C 28,8 C 47 % 1011,7 hPa 0,0 mm 3,7 km/h (1 Bft) NO 0,30 h 0,534 mm 3,2 UV-I 243 W/m 16,2 C 6,1 km/h (2 Bft)
10.07.2016 17:00 28,6 C 28,7 C 45 % 1011,3 hPa 0,0 mm 2,8 km/h (1 Bft) N-NW 0,00 h 0,178 mm 1,7 UV-I 55 W/m 15,6 C 4,7 km/h (1 Bft)
10.07.2016 18:00 28,7 C 28,7 C 46 % 1011,0 hPa 0,0 mm 3,5 km/h (1 Bft) NW 0,02 h 0,076 mm 1,2 UV-I 63 W/m 15,8 C 5,6 km/h (1 Bft)
10.07.2016 19:00 28,0 C 28,1 C 46 % 1011,0 hPa 0,0 mm 3,5 km/h (1 Bft) NW 0,57 h 0,076 mm 0,7 UV-I 124 W/m 15,3 C 5,7 km/h (1 Bft)
10.07.2016 20:00 25,2 C 25,3 C 53 % 1011,0 hPa 0,0 mm 1,6 km/h (1 Bft) S-SW 0,00 h 0,127 mm 0,0 UV-I 26 W/m 14,8 C 2,9 km/h (1 Bft)
10.07.2016 21:00 22,0 C 22,1 C 64 % 1011,5 hPa 0,0 mm 2,8 km/h (1 Bft) S-SO 0,00 h 0,051 mm 0,0 UV-I 6 W/m 14,9 C 4,6 km/h (1 Bft)
10.07.2016 22:00 20,1 C 20,2 C 78 % 1011,8 hPa 5,4 mm 3,6 km/h (1 Bft) S-SO 0,00 h 0,025 mm 0,0 UV-I 0 W/m 15,9 C 5,9 km/h (2 Bft)
10.07.2016 23:00 17,9 C 17,9 C 94 % 1012,2 hPa 0,0 mm 2,3 km/h (1 Bft) SO 0,00 h 0,026 mm 0,0 UV-I 0 W/m 16,9 C 4,2 km/h (1 Bft)
Min-Datum _ 07.07.16 07.07.16 08.07.16 10.07.16 - 10.07.16 - - - - - 07.07.16 10.07.16
_ Min-Zeit 04:02 04:00 15:21 20:03 - 20:33 - - - - - 04:00 20:33
Minimum _ 8,8 C 8,9 C 38 % 1010,8 hPa - 0,0 km/h (0 Bft) - - - - - 8,0 C 0,0 km/h (0 Bft)
Max-Datum _ 10.07.16 10.07.16 08.07.16 04.07.16 10.07.16 08.07.16 - 09.07.16 08.07.16 09.07.16 04.07.16 10.07.16 08.07.16
_ Max-Zeit 18:08 18:08 05:50 00:09 22:34 15:49 - 15:29 15:01 13:21 12:19 14:46 15:01
Maximum _ 29,0 C 29,0 C 96 % 1022,3 hPa 5,4 mm 23,9 km/h
W-NW (4 Bft)
- 0,03 h 0,635 mm 9,0 UV-I 1230 W/m 19,6 C 38,6 km/h
W (5 Bft)
Durchschnitt _ 18,1 C 18,1 C 71 % 1017,4 hPa #5,8 mm 3,8 km/h (1 Bft) W #47:13 h #26,975 mm 3,3 UV-I 228 W/m 12,3 C 6,2 km/h (2 Bft)